sensor_id;sensor_type;location;lat;lon;timestamp;pressure;altitude;pressure_sealevel;temperature;humidity
27712;BME280;2377;51.734;8.950;2023-03-13T00:00:05;96814.19;;;8.42;94.56
27712;BME280;2377;51.734;8.950;2023-03-13T00:02:33;96811.19;;;8.45;94.22
27712;BME280;2377;51.734;8.950;2023-03-13T00:05:00;96811.19;;;8.45;93.85
27712;BME280;2377;51.734;8.950;2023-03-13T00:07:28;96800.56;;;8.48;94.32
27712;BME280;2377;51.734;8.950;2023-03-13T00:09:55;96804.09;;;8.47;94.27
27712;BME280;2377;51.734;8.950;2023-03-13T00:12:22;96790.81;;;8.45;93.74
27712;BME280;2377;51.734;8.950;2023-03-13T00:14:50;96787.72;;;8.43;94.05
27712;BME280;2377;51.734;8.950;2023-03-13T00:17:17;96781.63;;;8.44;93.80
27712;BME280;2377;51.734;8.950;2023-03-13T00:19:44;96780.41;;;8.46;93.98
27712;BME280;2377;51.734;8.950;2023-03-13T00:22:11;96771.44;;;8.44;93.92
27712;BME280;2377;51.734;8.950;2023-03-13T00:24:39;96769.13;;;8.42;93.94
27712;BME280;2377;51.734;8.950;2023-03-13T00:27:06;96765.03;;;8.41;93.52
27712;BME280;2377;51.734;8.950;2023-03-13T00:29:33;96756.63;;;8.41;93.93
27712;BME280;2377;51.734;8.950;2023-03-13T00:32:02;96758.94;;;8.42;93.58
27712;BME280;2377;51.734;8.950;2023-03-13T00:34:29;96756.03;;;8.39;94.31
27712;BME280;2377;51.734;8.950;2023-03-13T00:36:56;96757.63;;;8.40;94.19
27712;BME280;2377;51.734;8.950;2023-03-13T00:39:23;96751.53;;;8.41;94.21
27712;BME280;2377;51.734;8.950;2023-03-13T00:41:50;96753.09;;;8.42;93.54
27712;BME280;2377;51.734;8.950;2023-03-13T00:44:17;96742.91;;;8.42;94.02
27712;BME280;2377;51.734;8.950;2023-03-13T00:46:44;96744.44;;;8.43;93.92
27712;BME280;2377;51.734;8.950;2023-03-13T00:49:13;96734.91;;;8.38;93.99
27712;BME280;2377;51.734;8.950;2023-03-13T00:51:40;96739.81;;;8.40;94.39
27712;BME280;2377;51.734;8.950;2023-03-13T00:54:08;96735.03;;;8.43;94.02
27712;BME280;2377;51.734;8.950;2023-03-13T00:56:35;96734.25;;;8.43;94.10
27712;BME280;2377;51.734;8.950;2023-03-13T00:59:02;96725.16;;;8.47;94.35
27712;BME280;2377;51.734;8.950;2023-03-13T01:01:31;96723.94;;;8.50;93.68
27712;BME280;2377;51.734;8.950;2023-03-13T01:04:02;96711.44;;;8.48;94.11
27712;BME280;2377;51.734;8.950;2023-03-13T01:06:33;96715.53;;;8.49;94.24
27712;BME280;2377;51.734;8.950;2023-03-13T01:09:03;96714.75;;;8.49;94.23
27712;BME280;2377;51.734;8.950;2023-03-13T01:11:33;96706.34;;;8.48;94.59
27712;BME280;2377;51.734;8.950;2023-03-13T01:14:03;96695.94;;;8.50;95.03
27712;BME280;2377;51.734;8.950;2023-03-13T01:16:33;96694.16;;;8.50;95.10
27712;BME280;2377;51.734;8.950;2023-03-13T01:19:04;96684.53;;;8.52;95.21
27712;BME280;2377;51.734;8.950;2023-03-13T01:21:33;96692.47;;;8.56;95.57
27712;BME280;2377;51.734;8.950;2023-03-13T01:24:00;96682.06;;;8.57;95.75
27712;BME280;2377;51.734;8.950;2023-03-13T01:26:30;96674.41;;;8.57;95.59
27712;BME280;2377;51.734;8.950;2023-03-13T01:28:57;96670.66;;;8.60;95.54
27712;BME280;2377;51.734;8.950;2023-03-13T01:31:27;96669.41;;;8.62;96.04
27712;BME280;2377;51.734;8.950;2023-03-13T01:33:57;96665.88;;;8.63;96.58
27712;BME280;2377;51.734;8.950;2023-03-13T01:36:27;96655.69;;;8.63;96.03
27712;BME280;2377;51.734;8.950;2023-03-13T01:38:59;96645.81;;;8.67;95.85
27712;BME280;2377;51.734;8.950;2023-03-13T01:41:28;96639.47;;;8.70;96.10
27712;BME280;2377;51.734;8.950;2023-03-13T01:43:56;96639.03;;;8.73;96.86
27712;BME280;2377;51.734;8.950;2023-03-13T01:46:24;96641.59;;;8.73;96.91
27712;BME280;2377;51.734;8.950;2023-03-13T01:48:57;96638.03;;;8.74;96.48
27712;BME280;2377;51.734;8.950;2023-03-13T01:51:30;96624.28;;;8.75;97.17
27712;BME280;2377;51.734;8.950;2023-03-13T01:54:07;96623.28;;;8.76;96.89
27712;BME280;2377;51.734;8.950;2023-03-13T01:56:42;96615.66;;;8.76;97.06
27712;BME280;2377;51.734;8.950;2023-03-13T01:59:14;96617.19;;;8.77;97.12
27712;BME280;2377;51.734;8.950;2023-03-13T02:01:45;96612.63;;;8.79;97.38
27712;BME280;2377;51.734;8.950;2023-03-13T02:04:15;96602.53;;;8.84;97.66
27712;BME280;2377;51.734;8.950;2023-03-13T02:06:46;96590.81;;;8.83;97.69
27712;BME280;2377;51.734;8.950;2023-03-13T02:09:20;96586.72;;;8.82;97.59
27712;BME280;2377;51.734;8.950;2023-03-13T02:11:57;96587.22;;;8.84;97.82
27712;BME280;2377;51.734;8.950;2023-03-13T02:14:32;96572.41;;;8.81;99.19
27712;BME280;2377;51.734;8.950;2023-03-13T02:17:00;96570.88;;;8.80;99.40
27712;BME280;2377;51.734;8.950;2023-03-13T02:19:36;96555.59;;;8.80;99.67
27712;BME280;2377;51.734;8.950;2023-03-13T02:22:15;96554.03;;;8.79;100.00
27712;BME280;2377;51.734;8.950;2023-03-13T02:24:55;96546.41;;;8.79;100.00
27712;BME280;2377;51.734;8.950;2023-03-13T02:27:25;96536.97;;;8.79;100.00
27712;BME280;2377;51.734;8.950;2023-03-13T02:29:53;96532.91;;;8.78;100.00
27712;BME280;2377;51.734;8.950;2023-03-13T02:32:21;96525.03;;;8.80;100.00
27712;BME280;2377;51.734;8.950;2023-03-13T02:34:55;96522.94;;;8.77;100.00
27712;BME280;2377;51.734;8.950;2023-03-13T02:37:26;96510.19;;;8.77;100.00
27712;BME280;2377;51.734;8.950;2023-03-13T02:40:00;96498.00;;;8.79;100.00
27712;BME280;2377;51.734;8.950;2023-03-13T02:42:31;96487.03;;;8.78;100.00
27712;BME280;2377;51.734;8.950;2023-03-13T02:44:58;96477.41;;;8.80;100.00
27712;BME280;2377;51.734;8.950;2023-03-13T02:47:25;96461.34;;;8.80;100.00
27712;BME280;2377;51.734;8.950;2023-03-13T02:49:52;96450.13;;;8.81;100.00
27712;BME280;2377;51.734;8.950;2023-03-13T02:52:24;96446.59;;;8.82;100.00
27712;BME280;2377;51.734;8.950;2023-03-13T02:54:58;96439.41;;;8.79;100.00
27712;BME280;2377;51.734;8.950;2023-03-13T02:57:26;96434.84;;;8.81;100.00
27712;BME280;2377;51.734;8.950;2023-03-13T02:59:55;96428.78;;;8.82;100.00
27712;BME280;2377;51.734;8.950;2023-03-13T03:02:22;96423.41;;;8.83;100.00
27712;BME280;2377;51.734;8.950;2023-03-13T03:04:49;96419.88;;;8.84;100.00
27712;BME280;2377;51.734;8.950;2023-03-13T03:07:16;96416.09;;;8.87;100.00
27712;BME280;2377;51.734;8.950;2023-03-13T03:09:43;96418.63;;;8.87;100.00
27712;BME280;2377;51.734;8.950;2023-03-13T03:12:10;96405.13;;;8.86;100.00
27712;BME280;2377;51.734;8.950;2023-03-13T03:14:38;96397.72;;;8.85;100.00
27712;BME280;2377;51.734;8.950;2023-03-13T03:17:06;96391.59;;;8.86;100.00
27712;BME280;2377;51.734;8.950;2023-03-13T03:19:33;96383.44;;;8.84;100.00
27712;BME280;2377;51.734;8.950;2023-03-13T03:22:00;96375.28;;;8.82;100.00
27712;BME280;2377;51.734;8.950;2023-03-13T03:24:27;96365.53;;;8.79;100.00
27712;BME280;2377;51.734;8.950;2023-03-13T03:26:55;96361.69;;;8.76;100.00
27712;BME280;2377;51.734;8.950;2023-03-13T03:29:22;96366.50;;;8.73;100.00
27712;BME280;2377;51.734;8.950;2023-03-13T03:31:49;96354.28;;;8.75;100.00
27712;BME280;2377;51.734;8.950;2023-03-13T03:34:17;96342.03;;;8.72;100.00
27712;BME280;2377;51.734;8.950;2023-03-13T03:36:44;96352.75;;;8.74;100.00
27712;BME280;2377;51.734;8.950;2023-03-13T03:39:11;96334.91;;;8.74;100.00
27712;BME280;2377;51.734;8.950;2023-03-13T03:41:38;96353.16;;;8.65;100.00
27712;BME280;2377;51.734;8.950;2023-03-13T03:44:06;96345.06;;;8.68;100.00
27712;BME280;2377;51.734;8.950;2023-03-13T03:46:33;96360.31;;;8.68;100.00
27712;BME280;2377;51.734;8.950;2023-03-13T03:49:00;96354.53;;;8.73;100.00
27712;BME280;2377;51.734;8.950;2023-03-13T03:51:28;96343.50;;;8.67;100.00
27712;BME280;2377;51.734;8.950;2023-03-13T03:53:55;96344.28;;;8.68;100.00
27712;BME280;2377;51.734;8.950;2023-03-13T03:56:22;96351.13;;;8.67;100.00
27712;BME280;2377;51.734;8.950;2023-03-13T03:58:49;96347.06;;;8.66;100.00
27712;BME280;2377;51.734;8.950;2023-03-13T04:01:16;96356.75;;;8.70;100.00
27712;BME280;2377;51.734;8.950;2023-03-13T04:03:43;96341.72;;;8.68;100.00
27712;BME280;2377;51.734;8.950;2023-03-13T04:06:10;96331.56;;;8.68;100.00
27712;BME280;2377;51.734;8.950;2023-03-13T04:08:39;96321.06;;;8.64;100.00
27712;BME280;2377;51.734;8.950;2023-03-13T04:11:06;96313.13;;;8.61;100.00
27712;BME280;2377;51.734;8.950;2023-03-13T04:13:33;96315.41;;;8.62;100.00
27712;BME280;2377;51.734;8.950;2023-03-13T04:16:06;96313.13;;;8.61;100.00
27712;BME280;2377;51.734;8.950;2023-03-13T04:18:34;96315.13;;;8.59;100.00
27712;BME280;2377;51.734;8.950;2023-03-13T04:21:02;96310.59;;;8.61;100.00
27712;BME280;2377;51.734;8.950;2023-03-13T04:23:29;96306.47;;;8.60;100.00
27712;BME280;2377;51.734;8.950;2023-03-13T04:25:58;96309.03;;;8.60;100.00
27712;BME280;2377;51.734;8.950;2023-03-13T04:28:25;96303.72;;;8.61;100.00
27712;BME280;2377;51.734;8.950;2023-03-13T04:30:52;96293.47;;;8.56;100.00
27712;BME280;2377;51.734;8.950;2023-03-13T04:33:23;96301.09;;;8.56;100.00
27712;BME280;2377;51.734;8.950;2023-03-13T04:35:50;96284.53;;;8.54;100.00
27712;BME280;2377;51.734;8.950;2023-03-13T04:38:17;96276.09;;;8.53;100.00
27712;BME280;2377;51.734;8.950;2023-03-13T04:40:45;96276.88;;;8.54;100.00
27712;BME280;2377;51.734;8.950;2023-03-13T04:43:14;96283.19;;;8.51;100.00
27712;BME280;2377;51.734;8.950;2023-03-13T04:45:41;96288.28;;;8.51;100.00
27712;BME280;2377;51.734;8.950;2023-03-13T04:48:08;96287.28;;;8.52;100.00
27712;BME280;2377;51.734;8.950;2023-03-13T04:50:35;96288.81;;;8.53;100.00
27712;BME280;2377;51.734;8.950;2023-03-13T04:53:02;96290.91;;;8.56;100.00
27712;BME280;2377;51.734;8.950;2023-03-13T04:55:29;96285.50;;;8.53;100.00
27712;BME280;2377;51.734;8.950;2023-03-13T04:57:56;96273.81;;;8.52;100.00
27712;BME280;2377;51.734;8.950;2023-03-13T05:00:25;96271.78;;;8.54;100.00
27712;BME280;2377;51.734;8.950;2023-03-13T05:02:52;96262.81;;;8.51;100.00
27712;BME280;2377;51.734;8.950;2023-03-13T05:05:19;96269.25;;;8.54;100.00
27712;BME280;2377;51.734;8.950;2023-03-13T05:07:46;96262.91;;;8.56;100.00
27712;BME280;2377;51.734;8.950;2023-03-13T05:10:13;96259.13;;;8.59;100.00
27712;BME280;2377;51.734;8.950;2023-03-13T05:12:40;96250.47;;;8.60;100.00
27712;BME280;2377;51.734;8.950;2023-03-13T05:15:08;96250.47;;;8.60;100.00
27712;BME280;2377;51.734;8.950;2023-03-13T05:17:37;96244.88;;;8.63;100.00
27712;BME280;2377;51.734;8.950;2023-03-13T05:20:06;96243.19;;;8.68;100.00
27712;BME280;2377;51.734;8.950;2023-03-13T05:22:35;96232.50;;;8.72;100.00
27712;BME280;2377;51.734;8.950;2023-03-13T05:25:03;96232.00;;;8.75;100.00
27712;BME280;2377;51.734;8.950;2023-03-13T05:27:31;96228.47;;;8.76;100.00
27712;BME280;2377;51.734;8.950;2023-03-13T05:29:58;96225.75;;;8.82;100.00
27712;BME280;2377;51.734;8.950;2023-03-13T05:32:25;96231.41;;;8.89;100.00
27712;BME280;2377;51.734;8.950;2023-03-13T05:34:53;96215.94;;;8.96;100.00
27712;BME280;2377;51.734;8.950;2023-03-13T05:37:20;96213.16;;;9.03;100.00
27712;BME280;2377;51.734;8.950;2023-03-13T05:39:47;96214.03;;;9.14;100.00
27712;BME280;2377;51.734;8.950;2023-03-13T05:42:14;96220.19;;;9.18;100.00
27712;BME280;2377;51.734;8.950;2023-03-13T05:44:41;96201.91;;;9.26;100.00
27712;BME280;2377;51.734;8.950;2023-03-13T05:47:08;96206.03;;;9.32;100.00
27712;BME280;2377;51.734;8.950;2023-03-13T05:49:35;96202.50;;;9.38;100.00
27712;BME280;2377;51.734;8.950;2023-03-13T05:52:04;96205.56;;;9.40;100.00
27712;BME280;2377;51.734;8.950;2023-03-13T05:54:31;96204.59;;;9.46;100.00
27712;BME280;2377;51.734;8.950;2023-03-13T05:56:58;96200.78;;;9.49;100.00
27712;BME280;2377;51.734;8.950;2023-03-13T05:59:25;96206.19;;;9.52;100.00
27712;BME280;2377;51.734;8.950;2023-03-13T06:01:52;96204.13;;;9.55;100.00
27712;BME280;2377;51.734;8.950;2023-03-13T06:04:20;96199.56;;;9.57;100.00
27712;BME280;2377;51.734;8.950;2023-03-13T06:06:47;96205.44;;;9.57;100.00
27712;BME280;2377;51.734;8.950;2023-03-13T06:09:15;96209.78;;;9.62;100.00
27712;BME280;2377;51.734;8.950;2023-03-13T06:11:42;96210.84;;;9.66;100.00
27712;BME280;2377;51.734;8.950;2023-03-13T06:14:09;96207.03;;;9.68;100.00
27712;BME280;2377;51.734;8.950;2023-03-13T06:16:36;96213.41;;;9.71;100.00
27712;BME280;2377;51.734;8.950;2023-03-13T06:19:03;96214.47;;;9.75;100.00
27712;BME280;2377;51.734;8.950;2023-03-13T06:21:30;96213.22;;;9.78;100.00
27712;BME280;2377;51.734;8.950;2023-03-13T06:23:58;96214.03;;;9.83;100.00
27712;BME280;2377;51.734;8.950;2023-03-13T06:26:26;96205.38;;;9.89;100.00
27712;BME280;2377;51.734;8.950;2023-03-13T06:28:53;96209.47;;;9.90;100.00
27712;BME280;2377;51.734;8.950;2023-03-13T06:31:21;96219.69;;;9.95;100.00
27712;BME280;2377;51.734;8.950;2023-03-13T06:33:51;96207.47;;;9.98;100.00
27712;BME280;2377;51.734;8.950;2023-03-13T06:36:19;96195.69;;;9.97;100.00
27712;BME280;2377;51.734;8.950;2023-03-13T06:38:46;96201.84;;;10.01;100.00
27712;BME280;2377;51.734;8.950;2023-03-13T06:41:13;96205.47;;;10.05;100.00
27712;BME280;2377;51.734;8.950;2023-03-13T06:43:41;96208.78;;;10.05;100.00
27712;BME280;2377;51.734;8.950;2023-03-13T06:46:16;96197.56;;;10.11;100.00
27712;BME280;2377;51.734;8.950;2023-03-13T06:48:44;96202.91;;;10.10;100.00
27712;BME280;2377;51.734;8.950;2023-03-13T06:51:12;96202.94;;;10.15;100.00
27712;BME280;2377;51.734;8.950;2023-03-13T06:53:39;96214.97;;;10.20;100.00
27712;BME280;2377;51.734;8.950;2023-03-13T06:56:07;96212.16;;;10.16;100.00
27712;BME280;2377;51.734;8.950;2023-03-13T06:58:35;96211.13;;;10.22;100.00
27712;BME280;2377;51.734;8.950;2023-03-13T07:01:08;96208.06;;;10.25;100.00
27712;BME280;2377;51.734;8.950;2023-03-13T07:03:35;96209.09;;;10.24;100.00
27712;BME280;2377;51.734;8.950;2023-03-13T07:06:04;96205.06;;;10.28;100.00
27712;BME280;2377;51.734;8.950;2023-03-13T07:08:32;96205.59;;;10.30;100.00
27712;BME280;2377;51.734;8.950;2023-03-13T07:11:02;96207.63;;;10.28;100.00
27712;BME280;2377;51.734;8.950;2023-03-13T07:13:30;96213.28;;;10.35;100.00
27712;BME280;2377;51.734;8.950;2023-03-13T07:15:59;96216.88;;;10.40;100.00
27712;BME280;2377;51.734;8.950;2023-03-13T07:18:28;96217.63;;;10.40;100.00
27712;BME280;2377;51.734;8.950;2023-03-13T07:20:57;96212.28;;;10.47;100.00
27712;BME280;2377;51.734;8.950;2023-03-13T07:23:27;96206.91;;;10.48;100.00
27712;BME280;2377;51.734;8.950;2023-03-13T07:25:57;96203.09;;;10.51;100.00
27712;BME280;2377;51.734;8.950;2023-03-13T07:28:26;96215.38;;;10.54;100.00
27712;BME280;2377;51.734;8.950;2023-03-13T07:30:54;96210.78;;;10.56;100.00
27712;BME280;2377;51.734;8.950;2023-03-13T07:33:21;96212.31;;;10.62;100.00
27712;BME280;2377;51.734;8.950;2023-03-13T07:35:51;96213.59;;;10.65;100.00
27712;BME280;2377;51.734;8.950;2023-03-13T07:38:18;96196.22;;;10.67;100.00
27712;BME280;2377;51.734;8.950;2023-03-13T07:40:49;96215.16;;;10.71;100.00
27712;BME280;2377;51.734;8.950;2023-03-13T07:43:18;96208.00;;;10.73;100.00
27712;BME280;2377;51.734;8.950;2023-03-13T07:45:53;96218.47;;;10.71;100.00
27712;BME280;2377;51.734;8.950;2023-03-13T07:48:22;96219.50;;;10.75;100.00
27712;BME280;2377;51.734;8.950;2023-03-13T07:50:53;96211.84;;;10.75;100.00
27712;BME280;2377;51.734;8.950;2023-03-13T07:53:21;96237.66;;;10.79;100.00
27712;BME280;2377;51.734;8.950;2023-03-13T07:55:55;96227.94;;;10.86;100.00
27712;BME280;2377;51.734;8.950;2023-03-13T07:58:26;96238.22;;;10.91;100.00
27712;BME280;2377;51.734;8.950;2023-03-13T08:00:54;96231.31;;;10.97;100.00
27712;BME280;2377;51.734;8.950;2023-03-13T08:03:21;96225.94;;;10.98;100.00
27712;BME280;2377;51.734;8.950;2023-03-13T08:05:58;96232.59;;;10.99;100.00
27712;BME280;2377;51.734;8.950;2023-03-13T08:08:26;96229.25;;;11.04;100.00
27712;BME280;2377;51.734;8.950;2023-03-13T08:10:59;96215.97;;;11.07;100.00
27712;BME280;2377;51.734;8.950;2023-03-13T08:13:27;96234.38;;;11.09;100.00
27712;BME280;2377;51.734;8.950;2023-03-13T08:16:02;96209.09;;;11.18;100.00
27712;BME280;2377;51.734;8.950;2023-03-13T08:18:29;96210.34;;;11.20;100.00
27712;BME280;2377;51.734;8.950;2023-03-13T08:21:03;96199.88;;;11.22;100.00
27712;BME280;2377;51.734;8.950;2023-03-13T08:23:30;96203.72;;;11.25;100.00
27712;BME280;2377;51.734;8.950;2023-03-13T08:26:05;96209.59;;;11.30;100.00
27712;BME280;2377;51.734;8.950;2023-03-13T08:28:34;96196.03;;;11.30;100.00
27712;BME280;2377;51.734;8.950;2023-03-13T08:31:09;96191.94;;;11.34;100.00
27712;BME280;2377;51.734;8.950;2023-03-13T08:33:37;96183.50;;;11.38;100.00
27712;BME280;2377;51.734;8.950;2023-03-13T08:36:11;96181.19;;;11.37;100.00
27712;BME280;2377;51.734;8.950;2023-03-13T08:38:39;96176.31;;;11.40;100.00
27712;BME280;2377;51.734;8.950;2023-03-13T08:41:07;96173.00;;;11.45;100.00
27712;BME280;2377;51.734;8.950;2023-03-13T08:43:34;96164.31;;;11.46;100.00
27712;BME280;2377;51.734;8.950;2023-03-13T08:46:01;96163.53;;;11.46;100.00
27712;BME280;2377;51.734;8.950;2023-03-13T08:48:28;96155.09;;;11.50;100.00
27712;BME280;2377;51.734;8.950;2023-03-13T08:51:04;96158.41;;;11.51;100.00
27712;BME280;2377;51.734;8.950;2023-03-13T08:53:35;96174.78;;;11.60;100.00
27712;BME280;2377;51.734;8.950;2023-03-13T08:56:03;96167.34;;;11.63;100.00
27712;BME280;2377;51.734;8.950;2023-03-13T08:58:31;96171.94;;;11.61;100.00
27712;BME280;2377;51.734;8.950;2023-03-13T09:01:01;96158.66;;;11.59;100.00
27712;BME280;2377;51.734;8.950;2023-03-13T09:03:29;96171.44;;;11.64;100.00
27712;BME280;2377;51.734;8.950;2023-03-13T09:05:56;96155.03;;;11.71;100.00
27712;BME280;2377;51.734;8.950;2023-03-13T09:08:24;96157.59;;;11.76;100.00
27712;BME280;2377;51.734;8.950;2023-03-13T09:10:56;96155.28;;;11.79;100.00
27712;BME280;2377;51.734;8.950;2023-03-13T09:13:25;96156.28;;;11.83;100.00
27712;BME280;2377;51.734;8.950;2023-03-13T09:15:56;96144.53;;;11.88;100.00
27712;BME280;2377;51.734;8.950;2023-03-13T09:18:24;96145.53;;;11.92;100.00
27712;BME280;2377;51.734;8.950;2023-03-13T09:20:52;96141.16;;;11.92;100.00
27712;BME280;2377;51.734;8.950;2023-03-13T09:23:21;96136.03;;;11.92;100.00
27712;BME280;2377;51.734;8.950;2023-03-13T09:25:51;96131.44;;;11.94;100.00
27712;BME280;2377;51.734;8.950;2023-03-13T09:28:20;96142.66;;;12.03;100.00
27712;BME280;2377;51.734;8.950;2023-03-13T09:30:47;96133.44;;;12.08;100.00
27712;BME280;2377;51.734;8.950;2023-03-13T09:33:15;96147.28;;;12.07;100.00
27712;BME280;2377;51.734;8.950;2023-03-13T09:35:42;96148.28;;;12.05;100.00
27712;BME280;2377;51.734;8.950;2023-03-13T09:38:12;96147.25;;;12.12;100.00
27712;BME280;2377;51.734;8.950;2023-03-13T09:40:45;96130.84;;;12.13;100.00
27712;BME280;2377;51.734;8.950;2023-03-13T09:43:28;96144.97;;;12.05;100.00
27712;BME280;2377;51.734;8.950;2023-03-13T09:46:04;96141.09;;;12.13;100.00
27712;BME280;2377;51.734;8.950;2023-03-13T09:48:36;96143.16;;;12.11;100.00
27712;BME280;2377;51.734;8.950;2023-03-13T09:51:11;96134.41;;;12.17;100.00
27712;BME280;2377;51.734;8.950;2023-03-13T09:53:43;96140.31;;;12.17;100.00
27712;BME280;2377;51.734;8.950;2023-03-13T09:56:18;96145.94;;;12.19;100.00
27712;BME280;2377;51.734;8.950;2023-03-13T09:58:54;96140.53;;;12.26;100.00
27712;BME280;2377;51.734;8.950;2023-03-13T10:01:28;96152.78;;;12.29;100.00
27712;BME280;2377;51.734;8.950;2023-03-13T10:04:06;96148.69;;;12.33;100.00
27712;BME280;2377;51.734;8.950;2023-03-13T10:06:40;96164.56;;;12.35;100.00
27712;BME280;2377;51.734;8.950;2023-03-13T10:09:17;96158.41;;;12.36;100.00
27712;BME280;2377;51.734;8.950;2023-03-13T10:11:55;96155.31;;;12.34;100.00
27712;BME280;2377;51.734;8.950;2023-03-13T10:14:30;96166.13;;;12.26;100.00
27712;BME280;2377;51.734;8.950;2023-03-13T10:17:06;96167.16;;;12.30;100.00
27712;BME280;2377;51.734;8.950;2023-03-13T10:19:39;96173.00;;;12.36;100.00
27712;BME280;2377;51.734;8.950;2023-03-13T10:22:14;96162.53;;;12.27;100.00
27712;BME280;2377;51.734;8.950;2023-03-13T10:24:49;96157.16;;;12.29;100.00
27712;BME280;2377;51.734;8.950;2023-03-13T10:27:18;96160.44;;;12.34;100.00
27712;BME280;2377;51.734;8.950;2023-03-13T10:29:47;96161.00;;;12.26;100.00
27712;BME280;2377;51.734;8.950;2023-03-13T10:32:16;96152.78;;;12.29;100.00
27712;BME280;2377;51.734;8.950;2023-03-13T10:34:51;96129.41;;;12.41;100.00
27712;BME280;2377;51.734;8.950;2023-03-13T10:37:23;96140.09;;;12.53;100.00
27712;BME280;2377;51.734;8.950;2023-03-13T10:39:51;96145.94;;;12.64;100.00
27712;BME280;2377;51.734;8.950;2023-03-13T10:42:25;96138.72;;;12.71;100.00
27712;BME280;2377;51.734;8.950;2023-03-13T10:45:00;96136.88;;;12.77;100.00
27712;BME280;2377;51.734;8.950;2023-03-13T10:47:35;96132.53;;;12.77;100.00
27712;BME280;2377;51.734;8.950;2023-03-13T10:50:04;96130.94;;;12.81;100.00
27712;BME280;2377;51.734;8.950;2023-03-13T10:52:40;96136.31;;;12.85;100.00
27712;BME280;2377;51.734;8.950;2023-03-13T10:55:11;96127.06;;;12.89;100.00
27712;BME280;2377;51.734;8.950;2023-03-13T10:57:42;96138.03;;;12.95;100.00
27712;BME280;2377;51.734;8.950;2023-03-13T11:00:33;96131.59;;;12.97;100.00
27712;BME280;2377;51.734;8.950;2023-03-13T11:03:04;96130.28;;;13.00;100.00
27712;BME280;2377;51.734;8.950;2023-03-13T11:05:37;96124.09;;;13.06;100.00
27712;BME280;2377;51.734;8.950;2023-03-13T11:08:19;96118.09;;;13.16;100.00
27712;BME280;2377;51.734;8.950;2023-03-13T11:10:59;96112.22;;;13.15;99.64
27712;BME280;2377;51.734;8.950;2023-03-13T11:13:31;96120.69;;;13.16;98.90
27712;BME280;2377;51.734;8.950;2023-03-13T11:16:13;96115.75;;;13.19;98.58
27712;BME280;2377;51.734;8.950;2023-03-13T11:19:20;96106.97;;;13.25;98.97
27712;BME280;2377;51.734;8.950;2023-03-13T11:22:05;96111.06;;;13.31;98.97
27712;BME280;2377;51.734;8.950;2023-03-13T11:24:42;96104.38;;;13.30;98.86
27712;BME280;2377;51.734;8.950;2023-03-13T11:27:22;96098.88;;;13.42;99.24
27712;BME280;2377;51.734;8.950;2023-03-13T11:30:06;96099.28;;;13.55;97.20
27712;BME280;2377;51.734;8.950;2023-03-13T11:32:42;96086.53;;;13.68;97.04
27712;BME280;2377;51.734;8.950;2023-03-13T11:35:34;96105.44;;;13.78;96.07
27712;BME280;2377;51.734;8.950;2023-03-13T11:38:08;96102.53;;;13.84;93.56
27712;BME280;2377;51.734;8.950;2023-03-13T11:40:53;96106.25;;;13.97;94.48
27712;BME280;2377;51.734;8.950;2023-03-13T11:43:40;96079.72;;;14.02;91.06
27712;BME280;2377;51.734;8.950;2023-03-13T11:46:51;96084.50;;;14.08;89.83
27712;BME280;2377;51.734;8.950;2023-03-13T11:49:52;96086.06;;;14.09;87.53
27712;BME280;2377;51.734;8.950;2023-03-13T11:52:44;96071.41;;;14.10;86.70
27712;BME280;2377;51.734;8.950;2023-03-13T11:55:31;96076.25;;;14.11;87.70
27712;BME280;2377;51.734;8.950;2023-03-13T11:58:28;96087.16;;;14.03;85.30
27712;BME280;2377;51.734;8.950;2023-03-13T12:01:03;96068.19;;;13.99;85.27
27712;BME280;2377;51.734;8.950;2023-03-13T12:03:39;96065.34;;;14.01;84.70
27712;BME280;2377;51.734;8.950;2023-03-13T12:06:22;96067.66;;;14.02;84.96
27712;BME280;2377;51.734;8.950;2023-03-13T12:08:54;96068.19;;;13.99;84.67
27712;BME280;2377;51.734;8.950;2023-03-13T12:11:27;96043.41;;;14.08;84.37
27712;BME280;2377;51.734;8.950;2023-03-13T12:14:01;96061.75;;;14.02;84.94
27712;BME280;2377;51.734;8.950;2023-03-13T12:16:40;96060.00;;;13.97;84.31
27712;BME280;2377;51.734;8.950;2023-03-13T12:19:14;96053.47;;;14.05;83.89
27712;BME280;2377;51.734;8.950;2023-03-13T12:21:49;96051.59;;;14.10;83.87
27712;BME280;2377;51.734;8.950;2023-03-13T12:24:25;96035.09;;;14.16;84.89
27712;BME280;2377;51.734;8.950;2023-03-13T12:26:58;96030.91;;;14.21;84.32
27712;BME280;2377;51.734;8.950;2023-03-13T12:29:39;96044.78;;;14.20;84.17
27712;BME280;2377;51.734;8.950;2023-03-13T12:32:15;96023.97;;;14.21;84.19
27712;BME280;2377;51.734;8.950;2023-03-13T12:34:58;96045.19;;;14.27;84.76
27712;BME280;2377;51.734;8.950;2023-03-13T12:37:37;96013.88;;;14.25;83.95
27712;BME280;2377;51.734;8.950;2023-03-13T12:40:22;96026.25;;;14.23;84.51
27712;BME280;2377;51.734;8.950;2023-03-13T12:42:59;96019.59;;;14.22;82.70
27712;BME280;2377;51.734;8.950;2023-03-13T12:45:34;96009.72;;;14.29;82.85
27712;BME280;2377;51.734;8.950;2023-03-13T12:48:47;96007.72;;;14.26;82.19
27712;BME280;2377;51.734;8.950;2023-03-13T12:51:37;96004.00;;;14.32;82.88
27712;BME280;2377;51.734;8.950;2023-03-13T12:54:33;95994.22;;;14.34;83.17
27712;BME280;2377;51.734;8.950;2023-03-13T12:57:20;95995.75;;;14.35;82.81
27712;BME280;2377;51.734;8.950;2023-03-13T12:59:55;95996.22;;;14.37;83.25
27712;BME280;2377;51.734;8.950;2023-03-13T13:02:27;95983.38;;;14.37;82.42
27712;BME280;2377;51.734;8.950;2023-03-13T13:04:57;95979.19;;;14.41;82.13
27712;BME280;2377;51.734;8.950;2023-03-13T13:07:28;95974.44;;;14.48;81.70
27712;BME280;2377;51.734;8.950;2023-03-13T13:10:15;95958.75;;;14.50;81.59
27712;BME280;2377;51.734;8.950;2023-03-13T13:12:45;95964.78;;;14.59;82.00
27712;BME280;2377;51.734;8.950;2023-03-13T13:15:21;95949.16;;;14.55;82.12
27712;BME280;2377;51.734;8.950;2023-03-13T13:18:23;95943.81;;;14.52;81.71
27712;BME280;2377;51.734;8.950;2023-03-13T13:21:19;95955.69;;;14.48;81.26
27712;BME280;2377;51.734;8.950;2023-03-13T13:23:49;95954.84;;;14.52;81.47
27712;BME280;2377;51.734;8.950;2023-03-13T13:26:50;95955.84;;;14.56;82.53
27712;BME280;2377;51.734;8.950;2023-03-13T13:29:57;95954.31;;;14.55;82.36
27712;BME280;2377;51.734;8.950;2023-03-13T13:32:38;95944.50;;;14.57;82.84